Time;durP1;ratioP1;P1;durP2;ratioP2;P2;SDS_P1;SDS_P2;PMS_P1;PMS_P2;Temp;Humidity;BMP_temperature;BMP_pressure;BME280_temperature;BME280_humidity;BME280_pressure;Samples;Min_cycle;Max_cycle;Signal;HPM_P1;HPM_P2
2023/08/22 00:00:57;;;;;;;8.52;2.95;;;;;;;19.19;100.00;101931.84;5030878;28;20045;-54
2023/08/22 00:03:26;;;;;;;9.15;3.40;;;;;;;19.18;100.00;101930.16;5009596;28;20058;-54
2023/08/22 00:05:54;;;;;;;8.52;3.72;;;;;;;19.18;100.00;101925.69;5008010;28;20555;-55
2023/08/22 00:08:22;;;;;;;7.57;2.95;;;;;;;19.16;100.00;101922.28;5007921;28;20500;-55
2023/08/22 00:10:50;;;;;;;7.72;2.92;;;;;;;19.11;100.00;101919.16;5006897;28;20042;-54
2023/08/22 00:13:18;;;;;;;9.00;3.15;;;;;;;19.16;100.00;101924.13;5021920;28;20052;-52
2023/08/22 00:15:48;;;;;;;8.15;2.92;;;;;;;19.12;100.00;101918.19;5027960;28;20481;-54
2023/08/22 00:18:16;;;;;;;8.40;3.10;;;;;;;19.07;100.00;101915.06;5027562;28;20060;-55
2023/08/22 00:20:44;;;;;;;7.57;2.75;;;;;;;19.04;100.00;101913.50;5030303;28;20037;-55
2023/08/22 00:23:12;;;;;;;7.40;2.72;;;;;;;19.03;100.00;101909.19;5025839;28;20496;-55
2023/08/22 00:25:42;;;;;;;6.95;2.67;;;;;;;19.16;100.00;101913.47;5027240;28;20045;-55
2023/08/22 00:28:10;;;;;;;5.72;2.80;;;;;;;19.23;100.00;101911.97;5013004;28;20518;-56
2023/08/22 00:30:39;;;;;;;8.10;2.80;;;;;;;19.17;100.00;101907.13;5011474;28;20060;-53
2023/08/22 00:33:08;;;;;;;6.50;2.63;;;;;;;19.09;100.00;101903.31;5008560;28;20046;-56
2023/08/22 00:35:37;;;;;;;7.07;3.03;;;;;;;19.07;100.00;101907.94;5022226;28;20058;-55
2023/08/22 00:38:05;;;;;;;7.00;2.85;;;;;;;18.99;100.00;101905.06;5025828;28;20050;-55
2023/08/22 00:40:33;;;;;;;7.60;2.97;;;;;;;18.95;100.00;101903.66;5028459;28;20107;-56
2023/08/22 00:43:01;;;;;;;7.85;2.60;;;;;;;18.98;100.00;101906.03;5027979;28;20052;-54
2023/08/22 00:45:29;;;;;;;6.22;2.65;;;;;;;18.95;100.00;101898.31;5029980;28;20053;-53
2023/08/22 00:47:58;;;;;;;7.25;3.40;;;;;;;18.94;100.00;101903.75;5016465;28;20050;-53
2023/08/22 00:50:28;;;;;;;5.25;2.53;;;;;;;18.96;100.00;101899.97;5007917;28;20046;-55
2023/08/22 00:52:56;;;;;;;7.90;3.20;;;;;;;18.98;100.00;101897.19;5009837;28;20436;-56
2023/08/22 00:55:24;;;;;;;5.47;2.70;;;;;;;18.97;100.00;101891.03;5005877;28;20493;-55
2023/08/22 00:57:53;;;;;;;5.90;2.50;;;;;;;18.97;100.00;101890.19;5016642;28;20056;-54
2023/08/22 01:00:21;;;;;;;6.63;2.63;;;;;;;18.99;100.00;101881.09;5030353;28;20065;-56
2023/08/22 01:02:49;;;;;;;9.73;3.33;;;;;;;18.95;100.00;101882.31;5027601;28;20854;-54
2023/08/22 01:05:18;;;;;;;7.57;2.75;;;;;;;18.97;100.00;101885.69;5027168;28;20049;-54
2023/08/22 01:07:54;;;;;;;7.47;2.78;;;;;;;18.96;100.00;101881.31;5023608;28;20069;-56
2023/08/22 01:10:28;;;;;;;5.70;2.60;;;;;;;18.92;100.00;101882.56;5006308;28;20042;-54
2023/08/22 01:13:03;;;;;;;7.57;2.78;;;;;;;18.96;100.00;101884.00;5011777;28;20056;-56
2023/08/22 01:15:36;;;;;;;6.72;2.83;;;;;;;18.92;100.00;101875.44;5013827;28;20053;-55
2023/08/22 01:18:06;;;;;;;6.00;2.40;;;;;;;18.90;100.00;101882.69;5011788;28;20508;-56
2023/08/22 01:20:35;;;;;;;6.30;3.13;;;;;;;18.89;100.00;101878.34;5013110;28;20097;-54
2023/08/22 01:23:05;;;;;;;5.53;2.20;;;;;;;18.83;100.00;101884.16;5012025;28;20427;-53
2023/08/22 01:25:33;;;;;;;7.28;2.90;;;;;;;18.85;100.00;101886.69;5009552;28;20504;-55
2023/08/22 01:28:11;;;;;;;9.65;2.90;;;;;;;18.84;100.00;101882.31;5011814;28;20045;-52
2023/08/22 01:30:48;;;;;;;7.78;3.10;;;;;;;18.75;100.00;101878.63;5029373;28;20049;-54
2023/08/22 01:33:23;;;;;;;6.00;2.80;;;;;;;18.68;100.00;101878.28;5032917;28;20136;-54
2023/08/22 01:35:55;;;;;;;7.60;2.88;;;;;;;18.74;100.00;101876.94;5033971;28;20393;-54
2023/08/22 01:38:28;;;;;;;7.22;2.53;;;;;;;18.72;100.00;101870.91;5030233;28;20133;-54
2023/08/22 01:40:58;;;;;;;8.88;2.83;;;;;;;18.74;100.00;101863.63;5009788;28;20539;-54
2023/08/22 01:43:26;;;;;;;7.43;2.80;;;;;;;18.84;100.00;101869.00;5011050;28;20112;-55
2023/08/22 01:45:54;;;;;;;6.97;2.53;;;;;;;18.75;100.00;101875.97;5013390;28;20786;-53
2023/08/22 01:48:23;;;;;;;8.82;3.20;;;;;;;18.72;100.00;101877.06;5012640;28;20132;-56
2023/08/22 01:50:51;;;;;;;7.75;3.03;;;;;;;18.67;100.00;101878.44;5032476;28;20037;-55
2023/08/22 01:53:21;;;;;;;10.93;3.55;;;;;;;18.58;100.00;101875.56;5029755;28;20081;-54
2023/08/22 01:55:51;;;;;;;6.38;3.13;;;;;;;18.62;100.00;101865.47;5031090;28;20114;-54
2023/08/22 01:58:22;;;;;;;8.32;2.95;;;;;;;18.59;100.00;101866.56;5031082;28;20054;-52
2023/08/22 02:00:50;;;;;;;8.00;3.17;;;;;;;18.58;100.00;101866.69;5010431;28;20474;-54
2023/08/22 02:03:21;;;;;;;6.97;3.17;;;;;;;18.52;100.00;101865.41;5010261;28;20046;-55
2023/08/22 02:05:49;;;;;;;8.07;2.92;;;;;;;18.41;100.00;101852.97;5011260;28;20120;-53
2023/08/22 02:08:17;;;;;;;8.57;2.88;;;;;;;18.39;100.00;101857.59;5011467;28;20065;-55
2023/08/22 02:10:45;;;;;;;6.07;3.03;;;;;;;18.44;100.00;101859.03;5008888;28;20069;-53
2023/08/22 02:13:15;;;;;;;7.88;3.00;;;;;;;18.54;100.00;101859.94;5010063;28;20045;-55
2023/08/22 02:15:43;;;;;;;7.85;2.65;;;;;;;18.53;100.00;101859.09;5013557;28;20045;-55
2023/08/22 02:18:11;;;;;;;8.65;3.10;;;;;;;18.50;100.00;101861.16;5012341;28;20146;-54
2023/08/22 02:20:39;;;;;;;9.13;2.60;;;;;;;18.53;100.00;101861.78;5024849;28;20046;-54
2023/08/22 02:23:07;;;;;;;10.68;3.47;;;;;;;18.50;100.00;101858.50;5010472;28;20112;-55
2023/08/22 02:25:36;;;;;;;7.10;2.97;;;;;;;18.46;100.00;101854.41;5010203;28;20628;-55
2023/08/22 02:28:05;;;;;;;8.30;3.40;;;;;;;18.50;100.00;101850.50;5010506;28;20046;-54
2023/08/22 02:30:34;;;;;;;7.53;3.13;;;;;;;18.53;100.00;101855.63;5011247;28;20050;-55
2023/08/22 02:33:03;;;;;;;6.60;3.10;;;;;;;18.51;100.00;101852.22;5012834;28;20062;-54
2023/08/22 02:35:31;;;;;;;9.60;3.17;;;;;;;18.45;100.00;101850.91;5009083;28;20048;-53
2023/08/22 02:37:59;;;;;;;9.25;3.33;;;;;;;18.52;100.00;101859.25;5010089;28;20046;-55
2023/08/22 02:40:27;;;;;;;7.03;3.20;;;;;;;18.54;100.00;101854.63;5013228;28;20197;-52
2023/08/22 02:42:55;;;;;;;9.02;3.92;;;;;;;18.48;100.00;101852.47;5012467;28;20092;-54
2023/08/22 02:45:23;;;;;;;10.25;3.47;;;;;;;18.40;100.00;101848.59;5009825;28;20395;-53
2023/08/22 02:47:54;;;;;;;6.22;3.25;;;;;;;18.39;100.00;101846.94;5009792;28;20499;-53
2023/08/22 02:50:23;;;;;;;8.15;3.42;;;;;;;18.38;100.00;101847.91;5009480;28;20170;-55
2023/08/22 02:52:52;;;;;;;10.13;3.58;;;;;;;18.39;100.00;101841.63;5009919;28;20042;-54
2023/08/22 02:55:20;;;;;;;6.22;3.38;;;;;;;18.38;100.00;101842.59;5008647;28;20042;-55
2023/08/22 02:57:48;;;;;;;8.98;3.90;;;;;;;18.34;100.00;101838.47;5012721;28;20104;-55
2023/08/22 03:00:19;;;;;;;11.43;3.97;;;;;;;18.31;100.00;101840.53;5011219;28;20050;-54
2023/08/22 03:02:47;;;;;;;6.45;3.45;;;;;;;18.33;100.00;101836.78;5011210;28;20052;-55
2023/08/22 03:05:17;;;;;;;8.30;3.70;;;;;;;18.28;100.00;101831.00;5027797;28;20127;-63
2023/08/22 03:07:46;;;;;;;7.13;3.17;;;;;;;18.27;100.00;101837.31;5028660;28;20053;-62
2023/08/22 03:10:14;;;;;;;7.47;3.78;;;;;;;18.33;100.00;101842.09;5026887;28;20664;-62
2023/08/22 03:12:42;;;;;;;7.20;3.22;;;;;;;18.30;100.00;101839.72;5027113;28;20046;-62
2023/08/22 03:15:11;;;;;;;8.05;3.05;;;;;;;18.27;100.00;101841.78;5030895;28;20045;-62
2023/08/22 03:17:39;;;;;;;8.10;3.63;;;;;;;18.22;100.00;101837.66;5032252;28;20046;-61
2023/08/22 03:20:09;;;;;;;9.02;3.38;;;;;;;18.25;100.00;101833.91;5028600;28;20111;-62
2023/08/22 03:22:38;;;;;;;8.82;3.53;;;;;;;18.16;100.00;101842.66;5017337;28;20042;-61
2023/08/22 03:25:07;;;;;;;7.25;3.22;;;;;;;18.17;100.00;101837.19;5007668;28;20046;-62
2023/08/22 03:27:35;;;;;;;7.93;3.33;;;;;;;18.13;100.00;101827.75;5008931;28;20050;-62
2023/08/22 03:30:04;;;;;;;10.13;3.50;;;;;;;18.13;100.00;101837.59;5009499;28;20050;-62
2023/08/22 03:32:32;;;;;;;8.75;3.40;;;;;;;18.11;100.00;101842.19;5017058;28;20493;-61
2023/08/22 03:35:00;;;;;;;7.65;3.30;;;;;;;18.05;100.00;101838.19;5010644;28;20377;-63
2023/08/22 03:37:28;;;;;;;6.63;3.33;;;;;;;17.99;100.00;101834.22;5011115;28;20130;-62
2023/08/22 03:39:58;;;;;;;8.60;3.33;;;;;;;17.94;100.00;101822.25;5006722;28;20395;-62
2023/08/22 03:42:26;;;;;;;8.82;3.53;;;;;;;17.97;100.00;101822.00;5008805;28;20049;-63
2023/08/22 03:44:54;;;;;;;8.35;3.42;;;;;;;17.86;100.00;101822.84;5011334;28;20053;-63
2023/08/22 03:47:22;;;;;;;6.03;3.60;;;;;;;17.84;100.00;101825.63;5028244;28;20350;-63
2023/08/22 03:49:51;;;;;;;6.55;3.33;;;;;;;17.84;100.00;101827.47;5028091;28;20120;-63
2023/08/22 03:52:19;;;;;;;7.15;3.40;;;;;;;17.78;100.00;101833.25;5028378;28;20171;-62
2023/08/22 03:54:47;;;;;;;9.05;3.38;;;;;;;17.81;100.00;101833.88;5030663;28;20041;-62
2023/08/22 03:57:17;;;;;;;8.07;3.60;;;;;;;17.80;100.00;101831.34;5026872;28;20058;-62
2023/08/22 03:59:45;;;;;;;9.45;3.97;;;;;;;17.76;100.00;101829.88;5027977;28;20408;-63
2023/08/22 04:02:16;;;;;;;8.82;3.83;;;;;;;17.66;100.00;101827.97;5031374;28;20045;-62
2023/08/22 04:04:44;;;;;;;11.93;4.03;;;;;;;17.68;100.00;101822.50;5029125;28;20062;-62
2023/08/22 04:07:12;;;;;;;7.82;4.20;;;;;;;17.64;100.00;101829.91;5017735;28;20054;-62
2023/08/22 04:09:40;;;;;;;8.00;4.00;;;;;;;17.62;100.00;101823.84;5006578;28;20057;-62
2023/08/22 04:12:09;;;;;;;8.23;3.83;;;;;;;17.63;100.00;101830.88;5010759;28;20100;-62
2023/08/22 04:14:38;;;;;;;7.97;4.00;;;;;;;17.61;100.00;101831.97;5007839;28;20053;-62
2023/08/22 04:17:06;;;;;;;8.20;4.18;;;;;;;17.57;100.00;101832.22;5010968;28;20052;-62
2023/08/22 04:19:35;;;;;;;9.70;4.57;;;;;;;17.51;100.00;101832.69;5029369;28;20053;-63
2023/08/22 04:22:03;;;;;;;9.40;5.25;;;;;;;17.47;100.00;101825.09;5028932;28;20480;-62
2023/08/22 04:24:31;;;;;;;7.97;5.00;;;;;;;17.45;100.00;101825.22;5026784;28;20045;-62
2023/08/22 04:27:00;;;;;;;11.45;4.72;;;;;;;17.38;100.00;101827.50;5031419;28;20048;-62
2023/08/22 04:29:29;;;;;;;10.35;4.68;;;;;;;17.38;100.00;101813.34;5030181;28;20069;-62
2023/08/22 04:32:01;;;;;;;9.93;4.97;;;;;;;17.36;100.00;101825.94;5027336;28;20041;-62
2023/08/22 04:34:29;;;;;;;11.03;4.80;;;;;;;17.29;100.00;101822.03;5022052;28;20144;-61
2023/08/22 04:36:57;;;;;;;8.18;4.38;;;;;;;17.26;100.00;101825.81;5007665;28;20058;-61
2023/08/22 04:39:25;;;;;;;8.93;4.32;;;;;;;17.30;100.00;101821.94;5011041;28;20140;-61
2023/08/22 04:41:53;;;;;;;8.52;4.47;;;;;;;17.31;100.00;101833.41;5027275;28;20099;-61
2023/08/22 04:44:21;;;;;;;8.32;5.03;;;;;;;17.31;100.00;101831.59;5027713;28;20120;-61
2023/08/22 04:46:50;;;;;;;9.50;4.60;;;;;;;17.30;100.00;101829.06;5020793;28;20048;-61
2023/08/22 04:49:19;;;;;;;10.27;4.82;;;;;;;17.24;100.00;101823.25;5030340;28;20175;-61
2023/08/22 04:51:47;;;;;;;9.27;5.03;;;;;;;17.20;100.00;101820.97;5031384;28;20208;-61
2023/08/22 04:54:16;;;;;;;9.65;5.07;;;;;;;17.20;100.00;101823.63;5033489;28;20889;-61
2023/08/22 04:56:44;;;;;;;8.57;5.50;;;;;;;17.21;100.00;101817.34;5015489;28;20053;-61
2023/08/22 04:59:12;;;;;;;10.45;5.93;;;;;;;17.27;100.00;101816.84;5013446;28;20045;-61
2023/08/22 05:01:40;;;;;;;8.52;5.22;;;;;;;17.19;100.00;101817.47;5012466;28;20501;-61
2023/08/22 05:04:08;;;;;;;11.15;5.60;;;;;;;17.29;100.00;101820.25;5011459;28;20068;-61
2023/08/22 05:06:38;;;;;;;8.55;5.28;;;;;;;17.21;100.00;101825.31;5010297;28;20464;-61
2023/08/22 05:09:06;;;;;;;9.60;5.30;;;;;;;17.11;100.00;101837.63;5025975;28;20049;-62
2023/08/22 05:11:35;;;;;;;9.30;5.13;;;;;;;17.13;100.00;101839.19;5010231;28;20523;-61
2023/08/22 05:14:03;;;;;;;10.82;5.72;;;;;;;17.17;100.00;101842.47;5011787;28;20049;-61
2023/08/22 05:16:31;;;;;;;11.43;5.13;;;;;;;17.16;100.00;101844.25;5017341;28;20049;-61
2023/08/22 05:19:00;;;;;;;9.23;5.32;;;;;;;17.20;100.00;101842.22;5031264;28;20701;-61
2023/08/22 05:21:28;;;;;;;10.43;6.07;;;;;;;17.16;100.00;101846.09;5030987;28;20064;-61
2023/08/22 05:23:57;;;;;;;12.82;5.28;;;;;;;17.17;100.00;101848.63;5028825;28;20057;-61
2023/08/22 05:26:25;;;;;;;9.00;5.20;;;;;;;17.16;100.00;101838.09;5029097;28;21069;-61
2023/08/22 05:28:53;;;;;;;10.13;5.75;;;;;;;17.20;100.00;101842.22;5030824;28;20053;-61
2023/08/22 05:31:22;;;;;;;11.68;5.55;;;;;;;17.25;100.00;101837.41;5031444;28;20515;-61
2023/08/22 05:33:50;;;;;;;9.57;5.60;;;;;;;17.23;100.00;101836.66;5032592;28;20115;-61
2023/08/22 05:36:18;;;;;;;12.70;5.70;;;;;;;17.25;100.00;101834.75;5030722;28;20107;-61
2023/08/22 05:38:47;;;;;;;12.13;5.45;;;;;;;17.35;100.00;101840.19;5026846;28;20057;-61
2023/08/22 05:41:16;;;;;;;10.82;5.50;;;;;;;17.35;100.00;101846.34;5030232;28;20072;-60
2023/08/22 05:43:45;;;;;;;9.95;6.35;;;;;;;17.35;100.00;101835.69;5033285;28;20045;-60
2023/08/22 05:46:16;;;;;;;9.75;6.78;;;;;;;17.37;100.00;101836.44;5031043;28;20053;-55
2023/08/22 05:48:44;;;;;;;11.30;6.97;;;;;;;17.38;100.00;101837.28;5027891;28;20489;-55
2023/08/22 05:51:12;;;;;;;10.40;6.38;;;;;;;17.44;100.00;101838.59;5024398;28;20050;-55
2023/08/22 05:53:40;;;;;;;11.32;7.38;;;;;;;17.46;100.00;101840.16;5020823;28;20091;-55
2023/08/22 05:56:11;;;;;;;12.38;7.43;;;;;;;17.51;100.00;101840.66;5020453;28;20109;-55
2023/08/22 05:58:41;;;;;;;11.88;6.93;;;;;;;17.55;100.00;101839.44;5023783;28;20077;-55
2023/08/22 06:01:10;;;;;;;13.45;8.02;;;;;;;17.63;100.00;101844.16;5029200;28;20045;-55
2023/08/22 06:03:39;;;;;;;13.35;7.55;;;;;;;17.72;100.00;101843.44;5012468;28;20057;-55
2023/08/22 06:06:07;;;;;;;11.45;8.05;;;;;;;17.82;100.00;101840.88;5025347;28;20460;-54
2023/08/22 06:08:35;;;;;;;12.20;7.05;;;;;;;17.94;100.00;101843.56;5028116;28;20506;-55
2023/08/22 06:11:04;;;;;;;13.15;7.53;;;;;;;18.08;100.00;101851.28;5009336;28;20052;-54
2023/08/22 06:13:32;;;;;;;14.52;8.90;;;;;;;18.20;100.00;101855.59;5011945;28;20050;-55
2023/08/22 06:16:05;;;;;;;15.80;9.93;;;;;;;18.34;100.00;101856.28;5013707;28;20409;-54
2023/08/22 06:18:33;;;;;;;12.73;8.73;;;;;;;18.45;100.00;101847.38;5030320;28;20057;-55
2023/08/22 06:21:02;;;;;;;15.93;10.32;;;;;;;18.61;100.00;101849.63;5030090;28;20045;-55
2023/08/22 06:23:31;;;;;;;14.45;9.88;;;;;;;18.71;100.00;101847.91;5028240;28;20126;-55
2023/08/22 06:25:59;;;;;;;13.02;9.68;;;;;;;18.83;100.00;101843.31;5029479;28;20054;-54
2023/08/22 06:28:27;;;;;;;13.85;9.07;;;;;;;18.93;100.00;101836.28;5029923;28;20111;-55
2023/08/22 06:30:55;;;;;;;14.00;9.35;;;;;;;19.06;100.00;101836.06;5029322;28;20104;-54
2023/08/22 06:33:24;;;;;;;16.23;9.10;;;;;;;19.19;100.00;101838.53;5028903;28;20030;-52
2023/08/22 06:35:53;;;;;;;16.65;9.60;;;;;;;19.36;100.00;101837.94;5028985;28;20107;-55
2023/08/22 06:38:21;;;;;;;14.00;8.80;;;;;;;19.52;100.00;101842.75;5027962;28;20338;-54
2023/08/22 06:40:49;;;;;;;13.82;8.38;;;;;;;19.69;100.00;101835.94;5025749;28;20037;-55
2023/08/22 06:43:17;;;;;;;13.45;7.97;;;;;;;19.86;100.00;101830.94;5030323;28;20116;-55
2023/08/22 06:45:45;;;;;;;13.48;8.13;;;;;;;20.02;100.00;101833.94;5028349;28;20049;-54
2023/08/22 06:48:13;;;;;;;12.07;7.18;;;;;;;20.15;100.00;101838.16;5025070;28;20052;-54
2023/08/22 06:50:59;;;;;;;11.35;6.68;;;;;;;20.29;100.00;101840.44;5028125;28;20045;-55
2023/08/22 06:53:27;;;;;;;11.85;7.45;;;;;;;20.46;100.00;101841.53;5030808;28;20163;-54
2023/08/22 06:55:57;;;;;;;11.23;5.88;;;;;;;20.64;100.00;101855.03;5026616;28;20037;-53
2023/08/22 06:58:25;;;;;;;9.45;5.95;;;;;;;20.85;100.00;101860.25;5028380;28;20053;-54
2023/08/22 07:00:53;;;;;;;11.02;6.00;;;;;;;21.00;100.00;101858.00;5029413;28;20037;-54
2023/08/22 07:03:21;;;;;;;8.98;5.20;;;;;;;21.13;100.00;101867.53;5029995;28;20033;-54
2023/08/22 07:05:52;;;;;;;10.60;4.82;;;;;;;21.25;100.00;101863.69;5029352;28;20049;-55
2023/08/22 07:08:22;;;;;;;11.25;4.78;;;;;;;21.36;100.00;101871.53;5026916;28;20045;-54
2023/08/22 07:10:53;;;;;;;10.07;4.80;;;;;;;21.44;100.00;101881.50;5027528;28;20120;-54
2023/08/22 07:13:21;;;;;;;8.65;4.60;;;;;;;21.44;100.00;101879.66;5028795;28;20053;-55
2023/08/22 07:15:50;;;;;;;8.77;4.45;;;;;;;21.52;100.00;101867.41;5028179;28;20045;-55
2023/08/22 07:18:18;;;;;;;8.50;5.03;;;;;;;21.55;100.00;101869.81;5018783;28;20462;-55
2023/08/22 07:20:46;;;;;;;8.18;4.28;;;;;;;21.59;100.00;101864.00;5031313;28;20045;-55
2023/08/22 07:23:14;;;;;;;10.13;4.63;;;;;;;21.78;100.00;101868.41;5028802;28;20072;-55
2023/08/22 07:25:49;;;;;;;9.27;5.28;;;;;;;21.96;100.00;101870.28;5032061;28;20087;-55
2023/08/22 07:28:18;;;;;;;11.77;5.97;;;;;;;22.12;100.00;101872.31;5029295;28;20117;-55
2023/08/22 07:30:48;;;;;;;10.55;5.53;;;;;;;22.32;100.00;101867.66;5029416;28;20995;-54
2023/08/22 07:33:16;;;;;;;11.17;4.87;;;;;;;22.48;100.00;101871.53;5027926;28;20534;-55
2023/08/22 07:35:45;;;;;;;11.10;5.18;;;;;;;22.52;100.00;101870.22;5021921;28;20049;-55
2023/08/22 07:38:14;;;;;;;11.73;4.75;;;;;;;22.65;100.00;101875.19;5027150;28;20037;-55
2023/08/22 07:40:42;;;;;;;10.00;4.43;;;;;;;22.84;100.00;101879.50;5023633;28;20820;-55
2023/08/22 07:43:12;;;;;;;11.52;4.82;;;;;;;22.85;100.00;101874.03;5027484;28;20527;-55
2023/08/22 07:45:40;;;;;;;9.82;3.80;;;;;;;23.00;100.00;101870.75;5026722;28;20492;-55
2023/08/22 07:48:08;;;;;;;7.78;3.33;;;;;;;23.13;100.00;101880.09;5027903;28;20049;-55
2023/08/22 07:50:37;;;;;;;7.65;3.00;;;;;;;23.25;100.00;101879.84;5026549;28;20040;-55
2023/08/22 07:53:06;;;;;;;9.13;3.03;;;;;;;23.35;100.00;101877.88;5026010;28;20060;-55
2023/08/22 07:55:35;;;;;;;7.88;2.42;;;;;;;23.38;100.00;101885.63;5025328;28;20049;-55
2023/08/22 07:58:03;;;;;;;6.60;2.65;;;;;;;23.39;100.00;101891.81;5029104;28;20056;-55
2023/08/22 08:00:33;;;;;;;10.35;2.88;;;;;;;23.54;100.00;101895.59;5027204;28;20531;-54
2023/08/22 08:03:03;;;;;;;6.75;2.42;;;;;;;23.62;100.00;101892.94;5026456;28;20531;-55
2023/08/22 08:05:33;;;;;;;6.45;2.40;;;;;;;23.69;100.00;101892.31;5025410;28;20041;-55
2023/08/22 08:08:01;;;;;;;7.63;1.95;;;;;;;23.82;100.00;101897.22;5025201;28;20038;-55
2023/08/22 08:10:29;;;;;;;5.95;1.88;;;;;;;23.89;100.00;101891.06;5020789;28;20059;-55
2023/08/22 08:12:58;;;;;;;5.53;1.60;;;;;;;23.99;100.00;101892.78;5029018;28;20447;-55
2023/08/22 08:15:26;;;;;;;5.90;1.70;;;;;;;23.90;100.00;101895.44;5030249;28;20039;-54
2023/08/22 08:17:58;;;;;;;4.55;1.80;;;;;;;23.79;100.00;101899.22;5029807;28;20128;-55
2023/08/22 08:20:26;;;;;;;5.70;1.63;;;;;;;23.93;100.00;101905.84;5029288;28;20128;-54
2023/08/22 08:22:55;;;;;;;7.35;1.70;;;;;;;24.02;100.00;101904.03;5032531;28;20041;-55
2023/08/22 08:25:26;;;;;;;6.03;1.70;;;;;;;24.23;100.00;101900.06;5035410;28;20125;-55
2023/08/22 08:27:55;;;;;;;5.57;1.58;;;;;;;24.28;100.00;101903.09;5034957;28;20041;-58
2023/08/22 08:30:23;;;;;;;4.65;1.77;;;;;;;24.22;100.00;101904.59;5024175;28;20072;-58
2023/08/22 08:32:51;;;;;;;5.40;1.60;;;;;;;24.17;100.00;101912.28;5023950;28;20797;-59
2023/08/22 08:35:21;;;;;;;7.93;1.60;;;;;;;24.24;100.00;101907.97;5032169;28;20033;-58
2023/08/22 08:37:52;;;;;;;6.32;1.40;;;;;;;24.35;100.00;101908.63;5033326;28;20049;-58
2023/08/22 08:40:20;;;;;;;4.53;1.60;;;;;;;24.39;100.00;101916.22;5024042;28;20045;-58
2023/08/22 08:42:51;;;;;;;6.68;1.35;;;;;;;24.46;100.00;101916.41;5012987;28;20050;-58
2023/08/22 08:45:22;;;;;;;4.65;1.50;;;;;;;24.45;100.00;101912.84;5031220;28;20048;-58
2023/08/22 08:47:50;;;;;;;5.60;1.58;;;;;;;24.56;100.00;101913.56;5031078;28;20503;-57
2023/08/22 08:50:18;;;;;;;5.82;1.83;;;;;;;24.43;100.00;101909.50;5029643;28;20319;-57
2023/08/22 08:52:49;;;;;;;6.05;1.60;;;;;;;24.57;100.00;101912.53;5031821;28;20046;-58
2023/08/22 08:55:17;;;;;;;5.00;1.58;;;;;;;24.58;100.00;101911.53;5029537;28;20048;-58
2023/08/22 08:57:46;;;;;;;6.75;1.58;;;;;;;24.47;100.00;101912.69;5031676;28;20120;-58
2023/08/22 09:00:16;;;;;;;5.40;1.98;;;;;;;24.47;100.00;101916.25;5031486;28;20462;-58
2023/08/22 09:02:45;;;;;;;5.47;1.95;;;;;;;24.49;100.00;101910.69;5029616;28;20059;-58
2023/08/22 09:05:13;;;;;;;6.25;2.45;;;;;;;24.50;100.00;101912.38;5030932;28;20397;-58
2023/08/22 09:07:44;;;;;;;6.47;2.30;;;;;;;24.63;100.00;101917.28;5031267;28;20492;-58
2023/08/22 09:10:13;;;;;;;6.57;2.20;;;;;;;24.71;100.00;101919.97;5029969;28;20045;-58
2023/08/22 09:12:42;;;;;;;9.15;2.60;;;;;;;24.68;100.00;101920.31;5021976;28;20064;-58
2023/08/22 09:15:18;;;;;;;6.45;3.10;;;;;;;24.80;100.00;101916.28;5034548;28;20536;-59
2023/08/22 09:17:46;;;;;;;7.50;2.72;;;;;;;24.94;100.00;101924.69;5034502;28;20045;-59
2023/08/22 09:20:15;;;;;;;6.40;2.55;;;;;;;25.00;100.00;101920.47;5033319;28;20385;-58
2023/08/22 09:22:43;;;;;;;8.27;2.38;;;;;;;25.09;100.00;101912.22;5031295;28;20108;-59
2023/08/22 09:25:13;;;;;;;7.60;2.45;;;;;;;25.11;100.00;101915.59;5030533;28;20515;-59
2023/08/22 09:27:41;;;;;;;8.02;2.67;;;;;;;25.34;100.00;101912.19;5034341;28;20404;-59
2023/08/22 09:30:14;;;;;;;8.50;2.13;;;;;;;25.20;100.00;101908.34;5032907;28;20505;-58
2023/08/22 09:32:42;;;;;;;;;;;;;;;25.35;100.00;101905.81;5034479;28;20060;-59
2023/08/22 09:35:12;;;;;;;7.28;1.90;;;;;;;25.59;100.00;101909.44;5031179;28;19929;-59
2023/08/22 09:37:41;;;;;;;5.82;2.10;;;;;;;25.89;100.00;101915.03;5029223;28;20045;-59
2023/08/22 09:40:10;;;;;;;8.25;2.10;;;;;;;26.09;100.00;101918.16;5030795;28;20053;-58
2023/08/22 09:42:41;;;;;;;6.32;2.42;;;;;;;26.08;100.00;101914.63;5032050;28;20033;-58
2023/08/22 09:45:10;;;;;;;7.30;2.30;;;;;;;26.17;100.00;101915.41;5016361;28;20121;-59
2023/08/22 09:47:43;;;;;;;5.63;2.10;;;;;;;26.27;100.00;101915.19;5025437;28;20052;-58
2023/08/22 09:50:17;;;;;;;8.10;2.50;;;;;;;26.23;100.00;101909.34;5025792;28;20132;-59
2023/08/22 09:52:47;;;;;;;6.70;2.30;;;;;;;26.33;100.00;101914.47;5014179;28;20038;-58
2023/08/22 09:55:17;;;;;;;7.57;2.33;;;;;;;26.51;100.00;101902.56;5017468;28;20091;-58
2023/08/22 09:57:47;;;;;;;6.28;1.90;;;;;;;26.59;100.00;101895.25;5030614;28;20064;-58
2023/08/22 10:00:17;;;;;;;6.10;1.98;;;;;;;26.77;100.00;101894.13;5029133;28;20047;-58
2023/08/22 10:02:47;;;;;;;7.13;2.03;;;;;;;26.70;100.00;101899.41;5029364;28;20112;-58
2023/08/22 10:05:16;;;;;;;11.05;2.83;;;;;;;26.57;100.00;101896.44;5028389;28;20512;-59
2023/08/22 10:07:46;;;;;;;8.15;2.85;;;;;;;26.46;100.00;101897.69;5026597;28;20037;-58
2023/08/22 10:10:15;;;;;;;10.38;2.72;;;;;;;26.42;100.00;101901.78;5022600;28;20053;-58
2023/08/22 10:12:48;;;;;;;8.52;2.63;;;;;;;26.37;100.00;101890.69;5030780;28;20052;-58
2023/08/22 10:15:17;;;;;;;7.50;2.50;;;;;;;26.70;100.00;101899.41;5028967;28;20037;-58
2023/08/22 10:17:46;;;;;;;9.43;2.30;;;;;;;26.75;100.00;101904.25;5022630;28;20176;-58
2023/08/22 10:20:15;;;;;;;6.28;2.80;;;;;;;26.88;100.00;101898.25;5027714;28;20084;-57
2023/08/22 10:22:44;;;;;;;9.45;3.00;;;;;;;26.86;100.00;101903.81;5026160;28;20070;-59
2023/08/22 10:25:12;;;;;;;8.73;2.97;;;;;;;27.11;100.00;101901.72;5026410;28;20121;-58
2023/08/22 10:27:49;;;;;;;7.47;3.03;;;;;;;27.27;100.00;101889.06;5027332;28;20069;-58
2023/08/22 10:30:19;;;;;;;12.18;3.45;;;;;;;27.56;100.00;101896.34;5028917;28;20045;-58
2023/08/22 10:33:03;;;;;;;11.23;3.08;;;;;;;27.99;100.00;101895.59;5030005;28;20451;-58
2023/08/22 10:36:02;;;;;;;9.10;3.00;;;;;;;28.27;100.00;101890.34;5025588;28;20057;-58
2023/08/22 10:38:48;;;;;;;8.43;2.83;;;;;;;28.43;99.18;101883.84;5027980;28;20045;-59
2023/08/22 10:41:17;;;;;;;9.50;2.83;;;;;;;28.43;89.07;101883.00;5029334;28;20049;-58
2023/08/22 10:43:47;;;;;;;9.57;2.80;;;;;;;28.59;89.89;101890.84;5032088;28;20063;-58
2023/08/22 10:46:16;;;;;;;7.05;2.88;;;;;;;28.45;85.45;101898.00;5028419;28;20115;-58
2023/08/22 10:48:47;;;;;;;5.35;2.30;;;;;;;28.43;85.46;101889.25;5032679;28;20116;-58
2023/08/22 10:51:15;;;;;;;7.05;2.10;;;;;;;28.47;84.12;101895.94;5032800;28;20132;-58
2023/08/22 10:53:44;;;;;;;4.13;1.70;;;;;;;28.71;82.65;101893.88;5032429;28;20414;-58
2023/08/22 10:56:22;;;;;;;7.38;2.17;;;;;;;28.72;80.05;101887.44;5012648;28;20050;-58
2023/08/22 10:59:01;;;;;;;5.00;1.45;;;;;;;28.63;78.25;101891.28;5024792;28;20085;-58
2023/08/22 11:01:30;;;;;;;8.40;1.90;;;;;;;28.76;79.91;101902.25;5010083;28;20125;-58
2023/08/22 11:04:03;;;;;;;6.97;1.90;;;;;;;28.53;77.37;101897.03;5011284;28;20050;-58
2023/08/22 11:06:31;;;;;;;7.07;1.40;;;;;;;28.45;80.75;101897.16;5020689;28;20493;-58
2023/08/22 11:09:02;;;;;;;3.80;1.10;;;;;;;28.61;79.15;101898.78;5012745;28;20045;-58
2023/08/22 11:11:30;;;;;;;3.40;1.20;;;;;;;28.46;75.92;101896.13;5012618;28;20050;-58
2023/08/22 11:14:00;;;;;;;4.70;0.98;;;;;;;28.30;72.67;101906.16;5012569;28;20067;-58
2023/08/22 11:16:29;;;;;;;4.97;1.10;;;;;;;27.96;71.39;101893.28;5014225;28;20048;-58
2023/08/22 11:18:57;;;;;;;3.97;1.15;;;;;;;28.04;76.53;101901.31;5032051;28;20057;-59
2023/08/22 11:21:26;;;;;;;3.47;0.90;;;;;;;28.43;73.68;101899.25;5026268;28;20052;-58
2023/08/22 11:23:54;;;;;;;3.10;0.93;;;;;;;28.39;72.81;101904.19;5012372;28;20053;-58
2023/08/22 11:26:22;;;;;;;3.22;0.90;;;;;;;28.60;71.80;101902.50;5029672;28;20060;-58